sensor_id;sensor_type;location;lat;lon;timestamp;temperature;humidity
15690;DHT22;7945;48.816;11.506;2023-05-20T00:02:21;15.00;99.90
15690;DHT22;7945;48.816;11.506;2023-05-20T00:04:48;14.90;99.90
15690;DHT22;7945;48.816;11.506;2023-05-20T00:07:16;14.90;99.90
15690;DHT22;7945;48.816;11.506;2023-05-20T00:09:43;14.90;99.90
15690;DHT22;7945;48.816;11.506;2023-05-20T00:12:09;14.80;99.90
15690;DHT22;7945;48.816;11.506;2023-05-20T00:14:36;14.80;99.90
15690;DHT22;7945;48.816;11.506;2023-05-20T00:17:03;14.80;99.90
15690;DHT22;7945;48.816;11.506;2023-05-20T00:19:29;14.70;99.90
15690;DHT22;7945;48.816;11.506;2023-05-20T00:21:56;14.70;99.90
15690;DHT22;7945;48.816;11.506;2023-05-20T00:24:25;14.70;99.90
15690;DHT22;7945;48.816;11.506;2023-05-20T00:26:52;14.70;99.90
15690;DHT22;7945;48.816;11.506;2023-05-20T00:29:20;14.70;99.90
15690;DHT22;7945;48.816;11.506;2023-05-20T00:31:47;14.70;99.90
15690;DHT22;7945;48.816;11.506;2023-05-20T00:34:13;14.70;99.90
15690;DHT22;7945;48.816;11.506;2023-05-20T00:36:40;14.70;99.90
15690;DHT22;7945;48.816;11.506;2023-05-20T00:39:07;14.70;99.90
15690;DHT22;7945;48.816;11.506;2023-05-20T00:41:35;14.70;99.90
15690;DHT22;7945;48.816;11.506;2023-05-20T00:44:02;14.70;99.90
15690;DHT22;7945;48.816;11.506;2023-05-20T00:46:29;14.70;99.90
15690;DHT22;7945;48.816;11.506;2023-05-20T00:48:56;14.70;99.90
15690;DHT22;7945;48.816;11.506;2023-05-20T00:51:23;14.70;99.90
15690;DHT22;7945;48.816;11.506;2023-05-20T00:53:50;14.60;99.90
15690;DHT22;7945;48.816;11.506;2023-05-20T00:56:16;14.70;99.90
15690;DHT22;7945;48.816;11.506;2023-05-20T00:58:45;14.60;99.90
15690;DHT22;7945;48.816;11.506;2023-05-20T01:01:12;14.70;99.90
15690;DHT22;7945;48.816;11.506;2023-05-20T01:03:39;14.60;99.90
15690;DHT22;7945;48.816;11.506;2023-05-20T01:06:05;14.60;99.90
15690;DHT22;7945;48.816;11.506;2023-05-20T01:08:32;14.60;99.90
15690;DHT22;7945;48.816;11.506;2023-05-20T01:11:03;14.50;99.90
15690;DHT22;7945;48.816;11.506;2023-05-20T01:13:33;14.60;99.90
15690;DHT22;7945;48.816;11.506;2023-05-20T01:16:04;14.60;99.90
15690;DHT22;7945;48.816;11.506;2023-05-20T01:18:33;14.60;99.90
15690;DHT22;7945;48.816;11.506;2023-05-20T01:21:01;14.50;99.90
15690;DHT22;7945;48.816;11.506;2023-05-20T01:23:37;14.50;99.90
15690;DHT22;7945;48.816;11.506;2023-05-20T01:26:04;14.60;99.90
15690;DHT22;7945;48.816;11.506;2023-05-20T01:28:31;14.50;99.90
15690;DHT22;7945;48.816;11.506;2023-05-20T01:31:01;14.50;99.90
15690;DHT22;7945;48.816;11.506;2023-05-20T01:33:31;14.50;99.90
15690;DHT22;7945;48.816;11.506;2023-05-20T01:36:01;14.50;99.90
15690;DHT22;7945;48.816;11.506;2023-05-20T01:38:28;14.50;99.90
15690;DHT22;7945;48.816;11.506;2023-05-20T01:40:58;14.50;99.90
15690;DHT22;7945;48.816;11.506;2023-05-20T01:43:26;14.50;99.90
15690;DHT22;7945;48.816;11.506;2023-05-20T01:45:53;14.50;99.90
15690;DHT22;7945;48.816;11.506;2023-05-20T01:48:20;14.50;99.90
15690;DHT22;7945;48.816;11.506;2023-05-20T01:50:46;14.50;99.90
15690;DHT22;7945;48.816;11.506;2023-05-20T01:53:13;14.50;99.90
15690;DHT22;7945;48.816;11.506;2023-05-20T01:55:40;14.40;99.90
15690;DHT22;7945;48.816;11.506;2023-05-20T01:58:08;14.40;99.90
15690;DHT22;7945;48.816;11.506;2023-05-20T02:00:35;14.40;99.90
15690;DHT22;7945;48.816;11.506;2023-05-20T02:03:02;14.40;99.90
15690;DHT22;7945;48.816;11.506;2023-05-20T02:05:28;14.40;99.90
15690;DHT22;7945;48.816;11.506;2023-05-20T02:07:55;14.40;99.90
15690;DHT22;7945;48.816;11.506;2023-05-20T02:10:22;14.40;99.90
15690;DHT22;7945;48.816;11.506;2023-05-20T02:12:49;14.40;99.90
15690;DHT22;7945;48.816;11.506;2023-05-20T02:15:17;14.40;99.90
15690;DHT22;7945;48.816;11.506;2023-05-20T02:17:44;14.40;99.90
15690;DHT22;7945;48.816;11.506;2023-05-20T02:20:12;14.40;99.90
15690;DHT22;7945;48.816;11.506;2023-05-20T02:22:39;14.40;99.90
15690;DHT22;7945;48.816;11.506;2023-05-20T02:25:07;14.40;99.90
15690;DHT22;7945;48.816;11.506;2023-05-20T02:27:33;14.30;99.90
15690;DHT22;7945;48.816;11.506;2023-05-20T02:30:00;14.30;99.90
15690;DHT22;7945;48.816;11.506;2023-05-20T02:32:28;14.30;99.90
15690;DHT22;7945;48.816;11.506;2023-05-20T02:34:55;14.30;99.90
15690;DHT22;7945;48.816;11.506;2023-05-20T02:37:22;14.30;99.90
15690;DHT22;7945;48.816;11.506;2023-05-20T02:39:49;14.30;99.90
15690;DHT22;7945;48.816;11.506;2023-05-20T02:42:16;14.30;99.90
15690;DHT22;7945;48.816;11.506;2023-05-20T02:44:42;14.20;99.90
15690;DHT22;7945;48.816;11.506;2023-05-20T02:47:09;14.20;99.90
15690;DHT22;7945;48.816;11.506;2023-05-20T02:49:37;14.20;99.90
15690;DHT22;7945;48.816;11.506;2023-05-20T02:52:04;14.20;99.90
15690;DHT22;7945;48.816;11.506;2023-05-20T02:54:32;14.20;99.90
15690;DHT22;7945;48.816;11.506;2023-05-20T02:56:58;14.10;99.90
15690;DHT22;7945;48.816;11.506;2023-05-20T02:59:26;14.10;99.90
15690;DHT22;7945;48.816;11.506;2023-05-20T03:01:53;14.00;99.90
15690;DHT22;7945;48.816;11.506;2023-05-20T03:04:20;14.10;99.90
15690;DHT22;7945;48.816;11.506;2023-05-20T03:06:48;14.10;99.90
15690;DHT22;7945;48.816;11.506;2023-05-20T03:09:16;14.10;99.90
15690;DHT22;7945;48.816;11.506;2023-05-20T03:11:43;14.00;99.90
15690;DHT22;7945;48.816;11.506;2023-05-20T03:14:10;14.00;99.90
15690;DHT22;7945;48.816;11.506;2023-05-20T03:16:39;14.00;99.90
15690;DHT22;7945;48.816;11.506;2023-05-20T03:19:06;14.00;99.90
15690;DHT22;7945;48.816;11.506;2023-05-20T03:21:32;14.00;99.90
15690;DHT22;7945;48.816;11.506;2023-05-20T03:24:00;14.00;99.90
15690;DHT22;7945;48.816;11.506;2023-05-20T03:26:27;14.00;99.90
15690;DHT22;7945;48.816;11.506;2023-05-20T03:28:54;13.90;99.90
15690;DHT22;7945;48.816;11.506;2023-05-20T03:31:21;13.90;99.90
15690;DHT22;7945;48.816;11.506;2023-05-20T03:33:48;13.90;99.90
15690;DHT22;7945;48.816;11.506;2023-05-20T03:36:15;13.90;99.90
15690;DHT22;7945;48.816;11.506;2023-05-20T03:38:42;13.90;99.90
15690;DHT22;7945;48.816;11.506;2023-05-20T03:41:10;13.90;99.90
15690;DHT22;7945;48.816;11.506;2023-05-20T03:43:37;13.90;99.90
15690;DHT22;7945;48.816;11.506;2023-05-20T03:46:03;13.90;99.90
15690;DHT22;7945;48.816;11.506;2023-05-20T03:48:30;13.90;99.90
15690;DHT22;7945;48.816;11.506;2023-05-20T03:50:57;13.90;99.90
15690;DHT22;7945;48.816;11.506;2023-05-20T03:53:24;13.90;99.90
15690;DHT22;7945;48.816;11.506;2023-05-20T03:55:50;13.90;99.90
15690;DHT22;7945;48.816;11.506;2023-05-20T03:58:19;13.90;99.90
15690;DHT22;7945;48.816;11.506;2023-05-20T04:00:46;13.90;99.90
15690;DHT22;7945;48.816;11.506;2023-05-20T04:03:13;14.00;99.90
15690;DHT22;7945;48.816;11.506;2023-05-20T04:05:40;14.00;99.90
15690;DHT22;7945;48.816;11.506;2023-05-20T04:08:07;14.10;99.90
15690;DHT22;7945;48.816;11.506;2023-05-20T04:10:34;14.10;99.90
15690;DHT22;7945;48.816;11.506;2023-05-20T04:13:01;14.10;99.90
15690;DHT22;7945;48.816;11.506;2023-05-20T04:15:29;14.20;99.90
15690;DHT22;7945;48.816;11.506;2023-05-20T04:17:56;14.20;99.90
15690;DHT22;7945;48.816;11.506;2023-05-20T04:20:22;14.30;99.90
15690;DHT22;7945;48.816;11.506;2023-05-20T04:22:49;14.40;99.90
15690;DHT22;7945;48.816;11.506;2023-05-20T04:25:17;14.50;99.90
15690;DHT22;7945;48.816;11.506;2023-05-20T04:27:43;14.70;99.90
15690;DHT22;7945;48.816;11.506;2023-05-20T04:30:11;14.70;99.90
15690;DHT22;7945;48.816;11.506;2023-05-20T04:32:39;15.00;99.90
15690;DHT22;7945;48.816;11.506;2023-05-20T04:35:07;15.50;99.90
15690;DHT22;7945;48.816;11.506;2023-05-20T04:37:36;15.80;99.90
15690;DHT22;7945;48.816;11.506;2023-05-20T04:40:03;16.00;99.90
15690;DHT22;7945;48.816;11.506;2023-05-20T04:42:31;16.20;99.90
15690;DHT22;7945;48.816;11.506;2023-05-20T04:44:58;16.30;99.90
15690;DHT22;7945;48.816;11.506;2023-05-20T04:47:26;16.50;99.90
15690;DHT22;7945;48.816;11.506;2023-05-20T04:49:55;16.70;99.90
15690;DHT22;7945;48.816;11.506;2023-05-20T04:52:22;17.20;99.90
15690;DHT22;7945;48.816;11.506;2023-05-20T04:54:49;17.90;99.80
15690;DHT22;7945;48.816;11.506;2023-05-20T04:57:16;18.70;98.70
15690;DHT22;7945;48.816;11.506;2023-05-20T04:59:45;19.00;98.10
15690;DHT22;7945;48.816;11.506;2023-05-20T05:02:12;19.10;97.80
15690;DHT22;7945;48.816;11.506;2023-05-20T05:04:39;19.60;97.30
15690;DHT22;7945;48.816;11.506;2023-05-20T05:07:07;20.10;96.60
15690;DHT22;7945;48.816;11.506;2023-05-20T05:09:34;20.60;95.80
15690;DHT22;7945;48.816;11.506;2023-05-20T05:12:01;21.10;95.10
15690;DHT22;7945;48.816;11.506;2023-05-20T05:14:28;20.90;94.90
15690;DHT22;7945;48.816;11.506;2023-05-20T05:16:54;20.70;95.00
15690;DHT22;7945;48.816;11.506;2023-05-20T05:19:21;20.70;94.80
15690;DHT22;7945;48.816;11.506;2023-05-20T05:21:48;21.20;94.30
15690;DHT22;7945;48.816;11.506;2023-05-20T05:24:16;21.80;93.40
15690;DHT22;7945;48.816;11.506;2023-05-20T05:26:43;22.30;92.50
15690;DHT22;7945;48.816;11.506;2023-05-20T05:29:09;22.70;92.00
15690;DHT22;7945;48.816;11.506;2023-05-20T05:31:36;23.20;91.30
15690;DHT22;7945;48.816;11.506;2023-05-20T05:34:03;23.20;90.90
15690;DHT22;7945;48.816;11.506;2023-05-20T05:36:32;23.10;90.60
15690;DHT22;7945;48.816;11.506;2023-05-20T05:38:59;23.40;90.20
15690;DHT22;7945;48.816;11.506;2023-05-20T05:41:27;23.40;90.00
15690;DHT22;7945;48.816;11.506;2023-05-20T05:43:53;23.60;88.90
15690;DHT22;7945;48.816;11.506;2023-05-20T05:46:20;23.90;88.30
15690;DHT22;7945;48.816;11.506;2023-05-20T05:48:47;24.00;87.60
15690;DHT22;7945;48.816;11.506;2023-05-20T05:51:15;24.30;86.60
15690;DHT22;7945;48.816;11.506;2023-05-20T05:53:42;24.20;85.90
15690;DHT22;7945;48.816;11.506;2023-05-20T05:56:09;24.00;85.70
15690;DHT22;7945;48.816;11.506;2023-05-20T05:58:37;23.50;86.70
15690;DHT22;7945;48.816;11.506;2023-05-20T06:01:04;22.90;87.90
15690;DHT22;7945;48.816;11.506;2023-05-20T06:03:31;22.30;89.40
15690;DHT22;7945;48.816;11.506;2023-05-20T06:05:58;21.80;90.10
15690;DHT22;7945;48.816;11.506;2023-05-20T06:08:25;21.20;90.90
15690;DHT22;7945;48.816;11.506;2023-05-20T06:10:52;20.80;91.60
15690;DHT22;7945;48.816;11.506;2023-05-20T06:15:22;21.50;92.40
15690;DHT22;7945;48.816;11.506;2023-05-20T06:17:48;19.80;92.80
15690;DHT22;7945;48.816;11.506;2023-05-20T06:20:15;19.50;93.20
15690;DHT22;7945;48.816;11.506;2023-05-20T06:22:42;19.20;93.70
15690;DHT22;7945;48.816;11.506;2023-05-20T06:25:09;19.10;94.00
15690;DHT22;7945;48.816;11.506;2023-05-20T06:27:36;19.10;94.40
15690;DHT22;7945;48.816;11.506;2023-05-20T06:30:04;18.80;94.70
15690;DHT22;7945;48.816;11.506;2023-05-20T06:32:32;18.60;95.00
15690;DHT22;7945;48.816;11.506;2023-05-20T06:34:59;18.60;95.30
15690;DHT22;7945;48.816;11.506;2023-05-20T06:37:26;18.70;95.50
15690;DHT22;7945;48.816;11.506;2023-05-20T06:39:52;18.50;95.30
15690;DHT22;7945;48.816;11.506;2023-05-20T06:42:19;18.40;95.60
15690;DHT22;7945;48.816;11.506;2023-05-20T06:44:46;18.50;95.60
15690;DHT22;7945;48.816;11.506;2023-05-20T06:47:14;18.50;95.70
15690;DHT22;7945;48.816;11.506;2023-05-20T06:49:43;18.50;95.80
15690;DHT22;7945;48.816;11.506;2023-05-20T06:52:09;18.40;95.90
15690;DHT22;7945;48.816;11.506;2023-05-20T06:54:37;18.40;96.10
15690;DHT22;7945;48.816;11.506;2023-05-20T06:57:06;18.40;96.20
15690;DHT22;7945;48.816;11.506;2023-05-20T06:59:33;18.40;96.40
15690;DHT22;7945;48.816;11.506;2023-05-20T07:02:00;18.30;96.50
15690;DHT22;7945;48.816;11.506;2023-05-20T07:04:26;18.20;96.60
15690;DHT22;7945;48.816;11.506;2023-05-20T07:06:54;18.10;96.80
15690;DHT22;7945;48.816;11.506;2023-05-20T07:09:21;18.10;96.80
15690;DHT22;7945;48.816;11.506;2023-05-20T07:11:48;18.10;96.80
15690;DHT22;7945;48.816;11.506;2023-05-20T07:14:14;18.10;96.90
15690;DHT22;7945;48.816;11.506;2023-05-20T07:16:41;18.10;97.00
15690;DHT22;7945;48.816;11.506;2023-05-20T07:19:08;18.10;97.00
15690;DHT22;7945;48.816;11.506;2023-05-20T07:21:35;18.10;97.00
15690;DHT22;7945;48.816;11.506;2023-05-20T07:24:03;18.10;97.00
15690;DHT22;7945;48.816;11.506;2023-05-20T07:26:30;18.10;96.90
15690;DHT22;7945;48.816;11.506;2023-05-20T07:28:58;18.10;96.90
15690;DHT22;7945;48.816;11.506;2023-05-20T07:31:25;18.10;97.10
15690;DHT22;7945;48.816;11.506;2023-05-20T07:33:51;18.10;97.20
15690;DHT22;7945;48.816;11.506;2023-05-20T07:36:18;18.10;97.20
15690;DHT22;7945;48.816;11.506;2023-05-20T07:38:45;18.20;97.20
15690;DHT22;7945;48.816;11.506;2023-05-20T07:41:13;18.30;97.20
15690;DHT22;7945;48.816;11.506;2023-05-20T07:43:40;18.30;97.20
15690;DHT22;7945;48.816;11.506;2023-05-20T07:46:06;18.20;97.40
15690;DHT22;7945;48.816;11.506;2023-05-20T07:48:33;18.20;97.20
15690;DHT22;7945;48.816;11.506;2023-05-20T07:51:00;18.20;97.50
15690;DHT22;7945;48.816;11.506;2023-05-20T07:53:27;18.20;97.40
15690;DHT22;7945;48.816;11.506;2023-05-20T07:55:54;18.30;97.40
15690;DHT22;7945;48.816;11.506;2023-05-20T07:58:22;18.20;97.50
15690;DHT22;7945;48.816;11.506;2023-05-20T08:00:48;18.20;97.60
15690;DHT22;7945;48.816;11.506;2023-05-20T08:03:16;18.20;97.50
15690;DHT22;7945;48.816;11.506;2023-05-20T08:05:43;18.10;97.60
15690;DHT22;7945;48.816;11.506;2023-05-20T08:08:10;18.10;97.80
15690;DHT22;7945;48.816;11.506;2023-05-20T08:10:37;18.20;98.10
15690;DHT22;7945;48.816;11.506;2023-05-20T08:13:04;18.30;98.00
15690;DHT22;7945;48.816;11.506;2023-05-20T08:15:32;18.20;98.00
15690;DHT22;7945;48.816;11.506;2023-05-20T08:17:58;18.40;97.90
15690;DHT22;7945;48.816;11.506;2023-05-20T08:20:25;18.60;97.60
15690;DHT22;7945;48.816;11.506;2023-05-20T08:22:52;18.70;97.30
15690;DHT22;7945;48.816;11.506;2023-05-20T08:25:18;18.70;97.10
15690;DHT22;7945;48.816;11.506;2023-05-20T08:27:45;18.70;97.30
15690;DHT22;7945;48.816;11.506;2023-05-20T08:30:12;18.70;97.50
15690;DHT22;7945;48.816;11.506;2023-05-20T08:32:40;18.70;97.40
15690;DHT22;7945;48.816;11.506;2023-05-20T08:35:07;18.80;97.40
15690;DHT22;7945;48.816;11.506;2023-05-20T08:37:34;18.80;97.30
15690;DHT22;7945;48.816;11.506;2023-05-20T08:40:01;18.80;97.20
15690;DHT22;7945;48.816;11.506;2023-05-20T08:42:27;18.80;97.10
15690;DHT22;7945;48.816;11.506;2023-05-20T08:44:54;18.80;97.20
15690;DHT22;7945;48.816;11.506;2023-05-20T08:47:23;18.80;97.30
15690;DHT22;7945;48.816;11.506;2023-05-20T08:49:53;18.80;97.30
15690;DHT22;7945;48.816;11.506;2023-05-20T08:52:20;18.90;97.40
15690;DHT22;7945;48.816;11.506;2023-05-20T08:54:48;19.00;97.30
15690;DHT22;7945;48.816;11.506;2023-05-20T08:57:16;19.00;97.40
15690;DHT22;7945;48.816;11.506;2023-05-20T08:59:45;19.00;97.40
15690;DHT22;7945;48.816;11.506;2023-05-20T09:02:13;19.10;97.30
15690;DHT22;7945;48.816;11.506;2023-05-20T09:04:40;19.10;97.30
15690;DHT22;7945;48.816;11.506;2023-05-20T09:07:08;19.30;97.30
15690;DHT22;7945;48.816;11.506;2023-05-20T09:09:35;19.30;97.30
15690;DHT22;7945;48.816;11.506;2023-05-20T09:12:02;19.40;97.20
15690;DHT22;7945;48.816;11.506;2023-05-20T09:14:30;19.40;97.20
15690;DHT22;7945;48.816;11.506;2023-05-20T09:16:57;19.60;97.10
15690;DHT22;7945;48.816;11.506;2023-05-20T09:19:24;19.80;96.80
15690;DHT22;7945;48.816;11.506;2023-05-20T09:21:52;20.00;96.80
15690;DHT22;7945;48.816;11.506;2023-05-20T09:24:24;19.90;96.40
15690;DHT22;7945;48.816;11.506;2023-05-20T09:26:52;20.00;96.20
15690;DHT22;7945;48.816;11.506;2023-05-20T09:29:19;19.90;96.20
15690;DHT22;7945;48.816;11.506;2023-05-20T09:31:46;20.00;96.10
15690;DHT22;7945;48.816;11.506;2023-05-20T09:34:13;20.10;96.10
15690;DHT22;7945;48.816;11.506;2023-05-20T09:36:42;20.20;96.00
15690;DHT22;7945;48.816;11.506;2023-05-20T09:39:13;20.30;95.60
15690;DHT22;7945;48.816;11.506;2023-05-20T09:41:48;20.20;95.70
15690;DHT22;7945;48.816;11.506;2023-05-20T09:44:15;20.20;95.70
15690;DHT22;7945;48.816;11.506;2023-05-20T09:46:43;20.20;95.70
15690;DHT22;7945;48.816;11.506;2023-05-20T09:49:12;20.20;95.60
15690;DHT22;7945;48.816;11.506;2023-05-20T09:51:41;20.30;95.70
15690;DHT22;7945;48.816;11.506;2023-05-20T09:54:10;20.40;95.60
15690;DHT22;7945;48.816;11.506;2023-05-20T09:56:39;20.50;95.70
15690;DHT22;7945;48.816;11.506;2023-05-20T09:59:08;20.50;95.60
15690;DHT22;7945;48.816;11.506;2023-05-20T10:01:36;20.60;95.10
15690;DHT22;7945;48.816;11.506;2023-05-20T10:04:05;20.60;95.00
15690;DHT22;7945;48.816;11.506;2023-05-20T10:06:54;20.70;95.40
15690;DHT22;7945;48.816;11.506;2023-05-20T10:09:42;20.90;95.20
15690;DHT22;7945;48.816;11.506;2023-05-20T10:12:18;20.80;94.70
15690;DHT22;7945;48.816;11.506;2023-05-20T10:14:59;20.90;94.90
15690;DHT22;7945;48.816;11.506;2023-05-20T10:17:37;21.00;94.90
15690;DHT22;7945;48.816;11.506;2023-05-20T10:20:06;21.10;95.20
15690;DHT22;7945;48.816;11.506;2023-05-20T10:22:36;21.20;94.90
15690;DHT22;7945;48.816;11.506;2023-05-20T10:25:05;21.30;94.40
15690;DHT22;7945;48.816;11.506;2023-05-20T10:27:42;21.40;94.20
15690;DHT22;7945;48.816;11.506;2023-05-20T10:30:17;21.50;94.60
15690;DHT22;7945;48.816;11.506;2023-05-20T10:32:52;21.70;94.40
15690;DHT22;7945;48.816;11.506;2023-05-20T10:35:22;21.80;93.60
15690;DHT22;7945;48.816;11.506;2023-05-20T10:37:51;22.00;93.50
15690;DHT22;7945;48.816;11.506;2023-05-20T10:40:20;22.10;93.30
15690;DHT22;7945;48.816;11.506;2023-05-20T10:42:48;22.30;92.60
15690;DHT22;7945;48.816;11.506;2023-05-20T10:45:27;22.40;92.50
15690;DHT22;7945;48.816;11.506;2023-05-20T10:47:57;22.40;91.70
15690;DHT22;7945;48.816;11.506;2023-05-20T10:50:28;22.30;92.40
15690;DHT22;7945;48.816;11.506;2023-05-20T10:53:03;22.20;92.30
15690;DHT22;7945;48.816;11.506;2023-05-20T10:55:45;22.30;92.30
15690;DHT22;7945;48.816;11.506;2023-05-20T10:58:14;22.30;91.10
15690;DHT22;7945;48.816;11.506;2023-05-20T11:00:42;22.40;91.70
15690;DHT22;7945;48.816;11.506;2023-05-20T11:03:10;22.60;91.30
15690;DHT22;7945;48.816;11.506;2023-05-20T11:05:38;22.70;90.70
15690;DHT22;7945;48.816;11.506;2023-05-20T11:08:07;22.90;90.50
15690;DHT22;7945;48.816;11.506;2023-05-20T11:10:34;23.00;90.30
15690;DHT22;7945;48.816;11.506;2023-05-20T11:13:02;23.20;90.00
15690;DHT22;7945;48.816;11.506;2023-05-20T11:15:30;23.20;89.10
15690;DHT22;7945;48.816;11.506;2023-05-20T11:18:01;23.30;89.40
15690;DHT22;7945;48.816;11.506;2023-05-20T11:20:29;23.40;88.60
15690;DHT22;7945;48.816;11.506;2023-05-20T11:23:00;23.60;89.80
15690;DHT22;7945;48.816;11.506;2023-05-20T11:25:28;23.60;89.70
15690;DHT22;7945;48.816;11.506;2023-05-20T11:27:55;23.70;88.70
15690;DHT22;7945;48.816;11.506;2023-05-20T11:30:23;23.90;88.80
15690;DHT22;7945;48.816;11.506;2023-05-20T11:32:57;23.90;87.90
15690;DHT22;7945;48.816;11.506;2023-05-20T11:35:29;23.90;85.20
15690;DHT22;7945;48.816;11.506;2023-05-20T11:38:00;23.70;86.10
15690;DHT22;7945;48.816;11.506;2023-05-20T11:40:29;23.50;86.10
15690;DHT22;7945;48.816;11.506;2023-05-20T11:42:57;23.30;87.20
15690;DHT22;7945;48.816;11.506;2023-05-20T11:45:24;23.20;87.70
15690;DHT22;7945;48.816;11.506;2023-05-20T11:47:59;23.10;87.70
15690;DHT22;7945;48.816;11.506;2023-05-20T11:50:32;23.00;87.20
15690;DHT22;7945;48.816;11.506;2023-05-20T11:52:59;22.90;87.80
15690;DHT22;7945;48.816;11.506;2023-05-20T11:55:28;22.80;88.40
15690;DHT22;7945;48.816;11.506;2023-05-20T11:57:57;22.80;88.70
15690;DHT22;7945;48.816;11.506;2023-05-20T12:00:25;22.80;87.90
15690;DHT22;7945;48.816;11.506;2023-05-20T12:02:52;22.80;87.40
15690;DHT22;7945;48.816;11.506;2023-05-20T12:05:19;22.80;86.80
15690;DHT22;7945;48.816;11.506;2023-05-20T12:07:47;22.80;87.20
15690;DHT22;7945;48.816;11.506;2023-05-20T12:10:14;22.70;87.50
15690;DHT22;7945;48.816;11.506;2023-05-20T12:12:42;22.70;87.70
15690;DHT22;7945;48.816;11.506;2023-05-20T12:15:10;22.80;88.00
15690;DHT22;7945;48.816;11.506;2023-05-20T12:17:47;22.90;88.10
15690;DHT22;7945;48.816;11.506;2023-05-20T12:20:15;22.90;88.90
15690;DHT22;7945;48.816;11.506;2023-05-20T12:22:43;23.00;89.00
15690;DHT22;7945;48.816;11.506;2023-05-20T12:25:12;23.00;88.70
15690;DHT22;7945;48.816;11.506;2023-05-20T12:27:40;23.00;88.90
15690;DHT22;7945;48.816;11.506;2023-05-20T12:30:08;23.10;87.80
15690;DHT22;7945;48.816;11.506;2023-05-20T12:32:35;23.20;88.60
15690;DHT22;7945;48.816;11.506;2023-05-20T12:35:02;23.20;88.90
15690;DHT22;7945;48.816;11.506;2023-05-20T12:37:29;23.30;89.20
15690;DHT22;7945;48.816;11.506;2023-05-20T12:39:56;23.30;88.30
15690;DHT22;7945;48.816;11.506;2023-05-20T12:42:24;23.20;89.00
15690;DHT22;7945;48.816;11.506;2023-05-20T12:44:51;23.20;89.80
15690;DHT22;7945;48.816;11.506;2023-05-20T12:47:19;23.20;90.20
15690;DHT22;7945;48.816;11.506;2023-05-20T12:49:46;23.20;90.00
15690;DHT22;7945;48.816;11.506;2023-05-20T12:52:13;23.30;90.20
15690;DHT22;7945;48.816;11.506;2023-05-20T12:54:39;23.30;88.80
15690;DHT22;7945;48.816;11.506;2023-05-20T12:57:06;23.40;88.50
15690;DHT22;7945;48.816;11.506;2023-05-20T12:59:35;23.60;87.10
15690;DHT22;7945;48.816;11.506;2023-05-20T13:02:02;23.70;85.90
15690;DHT22;7945;48.816;11.506;2023-05-20T13:04:28;23.80;85.50
15690;DHT22;7945;48.816;11.506;2023-05-20T13:06:56;23.80;84.80
15690;DHT22;7945;48.816;11.506;2023-05-20T13:09:23;23.80;84.40
15690;DHT22;7945;48.816;11.506;2023-05-20T13:11:50;24.00;85.00
15690;DHT22;7945;48.816;11.506;2023-05-20T13:14:17;24.20;85.10
15690;DHT22;7945;48.816;11.506;2023-05-20T13:16:45;24.30;83.50
15690;DHT22;7945;48.816;11.506;2023-05-20T13:19:12;24.20;82.30
15690;DHT22;7945;48.816;11.506;2023-05-20T13:21:39;24.20;83.80
15690;DHT22;7945;48.816;11.506;2023-05-20T13:24:06;24.00;83.00
15690;DHT22;7945;48.816;11.506;2023-05-20T13:26:33;24.00;83.80
15690;DHT22;7945;48.816;11.506;2023-05-20T13:29:00;24.00;83.10
15690;DHT22;7945;48.816;11.506;2023-05-20T13:31:27;24.10;83.10
15690;DHT22;7945;48.816;11.506;2023-05-20T13:33:56;24.20;83.60
15690;DHT22;7945;48.816;11.506;2023-05-20T13:36:24;24.30;82.90
15690;DHT22;7945;48.816;11.506;2023-05-20T13:38:51;24.40;81.10
15690;DHT22;7945;48.816;11.506;2023-05-20T13:41:18;24.30;81.90
15690;DHT22;7945;48.816;11.506;2023-05-20T13:43:45;24.30;80.50
15690;DHT22;7945;48.816;11.506;2023-05-20T13:46:12;24.20;80.60
15690;DHT22;7945;48.816;11.506;2023-05-20T13:48:39;24.30;80.10
15690;DHT22;7945;48.816;11.506;2023-05-20T13:51:07;24.30;79.60
15690;DHT22;7945;48.816;11.506;2023-05-20T13:53:34;24.30;80.00
15690;DHT22;7945;48.816;11.506;2023-05-20T13:56:01;24.40;79.50
15690;DHT22;7945;48.816;11.506;2023-05-20T13:58:28;24.40;79.20
15690;DHT22;7945;48.816;11.506;2023-05-20T14:00:54;24.40;79.60
15690;DHT22;7945;48.816;11.506;2023-05-20T14:03:21;24.40;79.40
15690;DHT22;7945;48.816;11.506;2023-05-20T14:05:48;24.40;78.70
15690;DHT22;7945;48.816;11.506;2023-05-20T14:08:16;24.30;77.90
15690;DHT22;7945;48.816;11.506;2023-05-20T14:10:43;24.40;78.20
15690;DHT22;7945;48.816;11.506;2023-05-20T14:13:09;24.40;77.40
15690;DHT22;7945;48.816;11.506;2023-05-20T14:15:36;24.40;77.90
15690;DHT22;7945;48.816;11.506;2023-05-20T14:18:03;24.40;77.60
15690;DHT22;7945;48.816;11.506;2023-05-20T14:20:30;24.40;78.10
15690;DHT22;7945;48.816;11.506;2023-05-20T14:22:56;24.50;77.70
15690;DHT22;7945;48.816;11.506;2023-05-20T14:25:26;24.50;77.80
15690;DHT22;7945;48.816;11.506;2023-05-20T14:27:53;24.50;77.10
15690;DHT22;7945;48.816;11.506;2023-05-20T14:30:20;24.60;77.70
15690;DHT22;7945;48.816;11.506;2023-05-20T14:32:46;24.60;76.80
15690;DHT22;7945;48.816;11.506;2023-05-20T14:35:13;24.50;76.10
15690;DHT22;7945;48.816;11.506;2023-05-20T14:37:40;24.60;76.60
15690;DHT22;7945;48.816;11.506;2023-05-20T14:40:08;24.60;77.10
15690;DHT22;7945;48.816;11.506;2023-05-20T14:42:36;24.70;77.30
15690;DHT22;7945;48.816;11.506;2023-05-20T14:45:04;24.80;77.40
15690;DHT22;7945;48.816;11.506;2023-05-20T14:47:31;24.70;76.60
15690;DHT22;7945;48.816;11.506;2023-05-20T14:49:58;24.60;77.10
15690;DHT22;7945;48.816;11.506;2023-05-20T14:52:25;24.70;77.60
15690;DHT22;7945;48.816;11.506;2023-05-20T14:54:51;24.70;77.90
15690;DHT22;7945;48.816;11.506;2023-05-20T14:57:18;24.70;76.30
15690;DHT22;7945;48.816;11.506;2023-05-20T14:59:46;24.60;75.70
15690;DHT22;7945;48.816;11.506;2023-05-20T15:02:15;24.60;76.10
15690;DHT22;7945;48.816;11.506;2023-05-20T15:04:42;24.60;76.70
15690;DHT22;7945;48.816;11.506;2023-05-20T15:07:10;24.60;77.30
15690;DHT22;7945;48.816;11.506;2023-05-20T15:09:37;24.50;77.20
15690;DHT22;7945;48.816;11.506;2023-05-20T15:12:04;24.50;76.50
15690;DHT22;7945;48.816;11.506;2023-05-20T15:14:31;24.40;75.80
15690;DHT22;7945;48.816;11.506;2023-05-20T15:16:59;24.40;76.30
15690;DHT22;7945;48.816;11.506;2023-05-20T15:19:26;24.30;75.40
15690;DHT22;7945;48.816;11.506;2023-05-20T15:21:53;24.30;74.50
15690;DHT22;7945;48.816;11.506;2023-05-20T15:24:20;24.20;75.20
15690;DHT22;7945;48.816;11.506;2023-05-20T15:26:47;24.20;75.50
15690;DHT22;7945;48.816;11.506;2023-05-20T15:29:13;24.20;75.50
15690;DHT22;7945;48.816;11.506;2023-05-20T15:31:40;24.10;74.60
15690;DHT22;7945;48.816;11.506;2023-05-20T15:34:09;24.10;75.40
15690;DHT22;7945;48.816;11.506;2023-05-20T15:36:35;24.10;76.00